Time;durP1;ratioP1;P1;durP2;ratioP2;P2;SDS_P1;SDS_P2;PMS_P1;PMS_P2;Temp;Humidity;BMP_temperature;BMP_pressure;BME280_temperature;BME280_humidity;BME280_pressure;Samples;Min_cycle;Max_cycle;Signal;HPM_P1;HPM_P2
2021/04/18 00:01:37;;;;;;;21.77;13.85;;;;;;;;;;6049385;29;20094;-73
2021/04/18 00:04:39;;;;;;;21.38;14.30;;;;;;;;;;6050657;29;20219;-73
2021/04/18 00:07:40;;;;;;;20.00;14.10;;;;;;;;;;6045765;29;20046;-73
2021/04/18 00:10:41;;;;;;;23.98;15.95;;;;;;;;;;6050109;29;20064;-72
2021/04/18 00:13:44;;;;;;;23.10;14.85;;;;;;;;;;6045723;29;20044;-73
2021/04/18 00:16:46;;;;;;;22.33;15.17;;;;;;;;;;6042850;29;20046;-73
2021/04/18 00:19:48;;;;;;;21.42;14.43;;;;;;;;;;6047466;29;20061;-73
2021/04/18 00:22:49;;;;;;;23.95;14.27;;;;;;;;;;6051956;29;20068;-73
2021/04/18 00:25:50;;;;;;;27.13;14.88;;;;;;;;;;6054935;29;20045;-73
2021/04/18 00:28:51;;;;;;;24.17;15.45;;;;;;;;;;6060349;29;20080;-73
2021/04/18 00:31:54;;;;;;;24.23;15.15;;;;;;;;;;6051182;29;20695;-74
2021/04/18 00:34:56;;;;;;;24.67;15.48;;;;;;;;;;6058753;29;20081;-73
2021/04/18 00:37:58;;;;;;;24.23;15.48;;;;;;;;;;6061805;29;20053;-74
2021/04/18 00:40:59;;;;;;;22.00;15.73;;;;;;;;;;6050113;29;20458;-72
2021/04/18 00:44:00;;;;;;;27.08;16.48;;;;;;;;;;6052151;29;20060;-73
2021/04/18 00:47:02;;;;;;;23.80;15.95;;;;;;;;;;6061623;29;20052;-73
2021/04/18 00:50:04;;;;;;;27.27;16.02;;;;;;;;;;6064135;29;20049;-73
2021/04/18 00:53:07;;;;;;;22.23;16.13;;;;;;;;;;6062064;29;20057;-73
2021/04/18 00:56:09;;;;;;;24.75;16.92;;;;;;;;;;6060064;29;20049;-72
2021/04/18 00:59:10;;;;;;;22.48;15.93;;;;;;;;;;6059200;29;20056;-74
2021/04/18 01:02:12;;;;;;;26.17;16.02;;;;;;;;;;6080010;24;20099;-74
2021/04/18 01:05:14;;;;;;;27.25;16.30;;;;;;;;;;6087572;29;20078;-75
2021/04/18 01:08:15;;;;;;;24.58;15.63;;;;;;;;;;6095535;29;20068;-73
2021/04/18 01:11:17;;;;;;;24.20;15.30;;;;;;;;;;6094108;29;20150;-71
2021/04/18 01:14:18;;;;;;;24.40;16.60;;;;;;;;;;6096156;29;20084;-72
2021/04/18 01:17:20;;;;;;;26.27;17.33;;;;;;;;;;6098542;29;20496;-71
2021/04/18 01:20:22;;;;;;;25.48;15.98;;;;;;;;;;6096962;29;20096;-72
2021/04/18 01:23:24;;;;;;;23.00;15.93;;;;;;;;;;6087728;29;20151;-72
2021/04/18 01:26:25;;;;;;;23.45;15.90;;;;;;;;;;6083580;29;20083;-71
2021/04/18 01:29:26;;;;;;;24.52;15.77;;;;;;;;;;6086542;29;20440;-72
2021/04/18 01:32:28;;;;;;;20.95;15.45;;;;;;;;;;6081054;29;20581;-71
2021/04/18 01:35:29;;;;;;;22.48;15.45;;;;;;;;;;6090111;29;20681;-71
2021/04/18 01:38:31;;;;;;;25.55;16.15;;;;;;;;;;6086265;29;20151;-71
2021/04/18 01:41:32;;;;;;;21.13;14.20;;;;;;;;;;6089415;29;20500;-71
2021/04/18 01:44:34;;;;;;;22.70;14.98;;;;;;;;;;6099128;29;20095;-71
2021/04/18 01:47:35;;;;;;;23.48;15.05;;;;;;;;;;6079480;29;20104;-74
2021/04/18 01:50:40;;;;;;;25.42;15.18;;;;;;;;;;6090248;29;20566;-71
2021/04/18 01:53:42;;;;;;;24.38;15.32;;;;;;;;;;6095424;29;20606;-71
2021/04/18 01:56:43;;;;;;;25.73;15.07;;;;;;;;;;6094252;29;20064;-71
2021/04/18 01:59:45;;;;;;;21.98;14.60;;;;;;;;;;6088895;29;20941;-71
2021/04/18 02:02:46;;;;;;;22.35;16.00;;;;;;;;;;6087006;29;20093;-72
2021/04/18 02:05:47;;;;;;;23.30;15.80;;;;;;;;;;6096272;29;20077;-71
2021/04/18 02:08:49;;;;;;;22.63;15.57;;;;;;;;;;6091301;29;20124;-71
2021/04/18 02:11:50;;;;;;;23.33;14.98;;;;;;;;;;6094117;29;20560;-75
2021/04/18 02:14:51;;;;;;;23.92;15.98;;;;;;;;;;6097842;29;20530;-71
2021/04/18 02:17:53;;;;;;;23.08;15.93;;;;;;;;;;6087401;29;20689;-73
2021/04/18 02:20:54;;;;;;;24.98;16.27;;;;;;;;;;6084654;29;20059;-72
2021/04/18 02:23:56;;;;;;;27.30;16.00;;;;;;;;;;6086086;29;20136;-71
2021/04/18 02:26:57;;;;;;;23.92;15.65;;;;;;;;;;6088160;29;20080;-72
2021/04/18 02:29:58;;;;;;;25.10;16.60;;;;;;;;;;6095258;29;20131;-72
2021/04/18 02:32:59;;;;;;;23.83;16.30;;;;;;;;;;6100939;29;20094;-72
2021/04/18 02:36:00;;;;;;;25.90;16.63;;;;;;;;;;6093433;29;20079;-72
2021/04/18 02:39:03;;;;;;;22.75;15.30;;;;;;;;;;6089554;29;20087;-72
2021/04/18 02:42:05;;;;;;;24.98;16.55;;;;;;;;;;6092819;29;20548;-69
2021/04/18 02:45:07;;;;;;;24.38;16.13;;;;;;;;;;6093361;29;20532;-73
2021/04/18 02:48:08;;;;;;;24.52;15.75;;;;;;;;;;6093808;29;20105;-69
2021/04/18 02:51:09;;;;;;;25.05;16.42;;;;;;;;;;6094749;29;20075;-70
2021/04/18 02:54:11;;;;;;;23.15;16.10;;;;;;;;;;6088767;29;20068;-70
2021/04/18 02:57:12;;;;;;;23.63;16.17;;;;;;;;;;6095972;29;20127;-73
2021/04/18 03:00:14;;;;;;;24.65;16.23;;;;;;;;;;6090130;29;20071;-69
2021/04/18 03:03:15;;;;;;;26.48;16.40;;;;;;;;;;6096895;29;20098;-69
2021/04/18 03:06:16;;;;;;;23.17;15.43;;;;;;;;;;6092876;29;20475;-70
2021/04/18 03:09:18;;;;;;;26.52;16.92;;;;;;;;;;6099317;29;20063;-69
2021/04/18 03:12:19;;;;;;;23.00;15.95;;;;;;;;;;6084643;29;20456;-70
2021/04/18 03:15:21;;;;;;;24.30;16.42;;;;;;;;;;6081453;29;20075;-69
2021/04/18 03:18:22;;;;;;;24.05;15.23;;;;;;;;;;6080816;29;20075;-70
2021/04/18 03:21:23;;;;;;;23.63;15.88;;;;;;;;;;6101463;29;20070;-69
2021/04/18 03:24:25;;;;;;;22.02;15.27;;;;;;;;;;6093830;29;20512;-69
2021/04/18 03:27:26;;;;;;;23.95;16.13;;;;;;;;;;6082278;29;20076;-70
2021/04/18 03:30:27;;;;;;;22.67;15.98;;;;;;;;;;6088163;29;20408;-71
2021/04/18 03:33:28;;;;;;;23.92;15.90;;;;;;;;;;6089597;29;20377;-73
2021/04/18 03:36:29;;;;;;;23.00;15.18;;;;;;;;;;6097739;29;20140;-73
2021/04/18 03:39:31;;;;;;;23.98;16.23;;;;;;;;;;6092788;29;20083;-71
2021/04/18 03:42:32;;;;;;;22.30;15.32;;;;;;;;;;6086193;29;20060;-74
2021/04/18 03:45:33;;;;;;;22.40;15.50;;;;;;;;;;6086680;29;20048;-72
2021/04/18 03:48:35;;;;;;;21.70;15.40;;;;;;;;;;6086731;29;20144;-71
2021/04/18 03:51:36;;;;;;;22.45;14.90;;;;;;;;;;6094919;29;20749;-72
2021/04/18 03:54:38;;;;;;;21.20;15.07;;;;;;;;;;6096998;29;20076;-72
2021/04/18 03:57:39;;;;;;;23.67;15.40;;;;;;;;;;6086232;29;20048;-71
2021/04/18 04:00:40;;;;;;;21.77;15.65;;;;;;;;;;6086549;29;20172;-72
2021/04/18 04:03:41;;;;;;;22.75;15.05;;;;;;;;;;6078417;29;20076;-72
2021/04/18 04:06:42;;;;;;;19.35;13.98;;;;;;;;;;6093396;29;20127;-72
2021/04/18 04:09:44;;;;;;;21.40;14.73;;;;;;;;;;6091249;29;20219;-72
2021/04/18 04:12:45;;;;;;;18.75;13.98;;;;;;;;;;6091102;29;20071;-72
2021/04/18 04:15:46;;;;;;;18.15;13.82;;;;;;;;;;6086977;29;20068;-72
2021/04/18 04:18:47;;;;;;;20.60;13.88;;;;;;;;;;6093232;29;20176;-71
2021/04/18 04:21:48;;;;;;;20.02;13.48;;;;;;;;;;6099771;29;20055;-72
2021/04/18 04:24:51;;;;;;;18.02;14.02;;;;;;;;;;6100028;29;20107;-71
2021/04/18 04:27:52;;;;;;;19.73;14.33;;;;;;;;;;6089093;29;20463;-72
2021/04/18 04:30:53;;;;;;;19.27;13.55;;;;;;;;;;6096209;29;20048;-73
2021/04/18 04:33:55;;;;;;;18.13;12.98;;;;;;;;;;6095362;29;20087;-73
2021/04/18 04:36:56;;;;;;;18.48;13.30;;;;;;;;;;6096935;29;20130;-71
2021/04/18 04:39:57;;;;;;;19.65;13.88;;;;;;;;;;6097768;29;20131;-71
2021/04/18 04:42:59;;;;;;;20.48;13.40;;;;;;;;;;6100525;29;20040;-71
2021/04/18 04:46:00;;;;;;;19.85;13.32;;;;;;;;;;6098689;29;20863;-72
2021/04/18 04:49:01;;;;;;;21.60;13.30;;;;;;;;;;6094284;29;20135;-71
2021/04/18 04:52:03;;;;;;;18.13;13.20;;;;;;;;;;6087218;29;20159;-72
2021/04/18 04:55:06;;;;;;;17.15;12.82;;;;;;;;;;6084738;29;20077;-72
2021/04/18 04:58:07;;;;;;;16.80;12.15;;;;;;;;;;6086151;29;20103;-72
2021/04/18 05:01:08;;;;;;;17.30;12.15;;;;;;;;;;6085552;29;20072;-73
2021/04/18 05:04:09;;;;;;;17.58;13.27;;;;;;;;;;6085465;29;20132;-71
2021/04/18 05:07:10;;;;;;;17.08;12.02;;;;;;;;;;6088436;29;20055;-75
2021/04/18 05:10:13;;;;;;;16.45;11.88;;;;;;;;;;6091169;29;20071;-71
2021/04/18 05:13:14;;;;;;;17.42;12.52;;;;;;;;;;6092719;29;20096;-71
2021/04/18 05:16:15;;;;;;;20.00;13.38;;;;;;;;;;6089169;29;20051;-72
2021/04/18 05:19:16;;;;;;;17.98;13.80;;;;;;;;;;6098555;29;20048;-71
2021/04/18 05:22:17;;;;;;;18.70;12.60;;;;;;;;;;6087268;29;20507;-71
2021/04/18 05:25:19;;;;;;;16.20;11.73;;;;;;;;;;6090186;29;20511;-75
2021/04/18 05:28:20;;;;;;;17.17;12.48;;;;;;;;;;6086657;29;20153;-72
2021/04/18 05:31:22;;;;;;;16.15;12.10;;;;;;;;;;6087625;29;20063;-74
2021/04/18 05:34:23;;;;;;;16.50;12.18;;;;;;;;;;6083757;29;20564;-72
2021/04/18 05:37:24;;;;;;;17.80;12.45;;;;;;;;;;6086260;29;20059;-72
2021/04/18 05:40:26;;;;;;;16.95;11.80;;;;;;;;;;6091382;29;20136;-72
2021/04/18 05:43:27;;;;;;;15.80;11.40;;;;;;;;;;6090978;29;20135;-71
2021/04/18 05:46:28;;;;;;;16.00;11.57;;;;;;;;;;6099484;29;20091;-75
2021/04/18 05:49:29;;;;;;;18.05;11.73;;;;;;;;;;6098981;29;20083;-72
2021/04/18 05:52:31;;;;;;;16.17;12.13;;;;;;;;;;6095181;29;20083;-72
2021/04/18 05:55:32;;;;;;;16.25;12.52;;;;;;;;;;6095248;29;20562;-72
2021/04/18 05:58:33;;;;;;;15.80;11.77;;;;;;;;;;6094795;29;20071;-72
2021/04/18 06:01:35;;;;;;;14.77;11.27;;;;;;;;;;6091112;29;20275;-72
2021/04/18 06:04:36;;;;;;;14.50;11.23;;;;;;;;;;6085529;29;20087;-73
2021/04/18 06:07:37;;;;;;;16.20;11.45;;;;;;;;;;6084186;29;20128;-72
2021/04/18 06:10:38;;;;;;;16.15;11.57;;;;;;;;;;6084587;29;20139;-72
2021/04/18 06:13:40;;;;;;;14.57;10.55;;;;;;;;;;6096487;29;20151;-71
2021/04/18 06:16:41;;;;;;;14.85;12.02;;;;;;;;;;6090064;29;20543;-72
2021/04/18 06:19:42;;;;;;;16.02;11.77;;;;;;;;;;6086185;29;20135;-72
2021/04/18 06:22:43;;;;;;;16.10;12.32;;;;;;;;;;6081462;29;20147;-74
2021/04/18 06:25:45;;;;;;;16.23;12.35;;;;;;;;;;6081043;29;20147;-74
2021/04/18 06:28:46;;;;;;;19.85;12.38;;;;;;;;;;6086903;29;20083;-72
2021/04/18 06:31:47;;;;;;;14.15;11.23;;;;;;;;;;6081667;29;20048;-72
2021/04/18 06:34:48;;;;;;;15.43;11.73;;;;;;;;;;6091868;29;20096;-72
2021/04/18 06:37:49;;;;;;;17.02;11.73;;;;;;;;;;6097510;29;20206;-73
2021/04/18 06:40:52;;;;;;;21.70;12.48;;;;;;;;;;6096221;29;20592;-72
2021/04/18 06:43:53;;;;;;;17.35;13.32;;;;;;;;;;6097682;29;20406;-72
2021/04/18 06:46:55;;;;;;;17.30;12.98;;;;;;;;;;6095017;29;20068;-72
2021/04/18 06:49:56;;;;;;;16.83;12.07;;;;;;;;;;6096621;29;20625;-72
2021/04/18 06:52:57;;;;;;;17.73;11.68;;;;;;;;;;6090667;29;20623;-72
2021/04/18 06:56:02;;;;;;;17.55;12.77;;;;;;;;;;6094766;29;20135;-73
2021/04/18 06:59:04;;;;;;;18.33;13.77;;;;;;;;;;6096251;29;20080;-72
2021/04/18 07:02:06;;;;;;;17.65;13.43;;;;;;;;;;6093471;29;20140;-72
2021/04/18 07:05:09;;;;;;;18.38;12.43;;;;;;;;;;6090267;29;20097;-73
2021/04/18 07:08:19;;;;;;;16.98;13.18;;;;;;;;;;6091385;29;20067;-75
2021/04/18 07:11:21;;;;;;;18.40;12.80;;;;;;;;;;6089305;29;20055;-72
2021/04/18 07:14:25;;;;;;;15.25;11.45;;;;;;;;;;6093029;29;20489;-73
2021/04/18 07:17:26;;;;;;;16.67;11.30;;;;;;;;;;6094660;29;20144;-72
2021/04/18 07:20:27;;;;;;;17.08;12.88;;;;;;;;;;6093995;29;20091;-73
2021/04/18 07:23:30;;;;;;;16.92;11.73;;;;;;;;;;6091177;29;20503;-73
2021/04/18 07:26:32;;;;;;;16.20;12.00;;;;;;;;;;6089196;29;20054;-72
2021/04/18 07:29:34;;;;;;;15.90;11.82;;;;;;;;;;6088396;29;20082;-72
2021/04/18 07:32:35;;;;;;;19.30;12.43;;;;;;;;;;6087681;29;20068;-72
2021/04/18 07:35:37;;;;;;;18.42;11.70;;;;;;;;;;6088802;29;20142;-72
2021/04/18 07:38:38;;;;;;;15.65;11.93;;;;;;;;;;6089309;29;20052;-73
2021/04/18 07:41:41;;;;;;;15.05;11.15;;;;;;;;;;6098359;29;20139;-72
2021/04/18 07:44:43;;;;;;;13.73;10.77;;;;;;;;;;6099592;29;20048;-70
2021/04/18 07:47:45;;;;;;;13.27;10.57;;;;;;;;;;6091911;29;20077;-70
2021/04/18 07:50:48;;;;;;;15.20;10.80;;;;;;;;;;6088364;29;20131;-71
2021/04/18 07:53:50;;;;;;;14.97;10.97;;;;;;;;;;6100784;29;20072;-74
2021/04/18 07:56:52;;;;;;;18.83;11.90;;;;;;;;;;6097608;29;20067;-73
2021/04/18 07:59:53;;;;;;;14.68;11.43;;;;;;;;;;6102845;29;20036;-70
2021/04/18 08:02:54;;;;;;;17.67;11.80;;;;;;;;;;6093029;29;20048;-75
2021/04/18 08:05:56;;;;;;;15.45;11.25;;;;;;;;;;6087520;29;20463;-72
2021/04/18 08:08:57;;;;;;;14.30;10.65;;;;;;;;;;6085477;29;20119;-71
2021/04/18 08:12:09;;;;;;;14.70;11.55;;;;;;;;;;6091071;29;20491;-71
2021/04/18 08:15:14;;;;;;;15.75;11.10;;;;;;;;;;6090734;29;20050;-71
2021/04/18 08:18:15;;;;;;;13.95;10.70;;;;;;;;;;6084049;29;20476;-71
2021/04/18 08:21:25;;;;;;;13.60;10.40;;;;;;;;;;6085758;29;20041;-71
2021/04/18 08:24:35;;;;;;;15.02;11.48;;;;;;;;;;6085749;29;20480;-72
2021/04/18 08:28:01;;;;;;;15.80;10.20;;;;;;;;;;6082711;29;20171;-71
2021/04/18 08:31:07;;;;;;;13.85;9.60;;;;;;;;;;6084778;29;20671;-71
2021/04/18 08:34:18;;;;;;;12.25;9.93;;;;;;;;;;6090234;29;20044;-71
2021/04/18 08:37:20;;;;;;;15.07;10.30;;;;;;;;;;6084665;29;20140;-72
2021/04/18 08:40:30;;;;;;;13.27;10.50;;;;;;;;;;6086789;29;20059;-71
2021/04/18 08:43:32;;;;;;;14.18;11.98;;;;;;;;;;6087744;29;20111;-71
2021/04/18 08:46:33;;;;;;;14.88;10.68;;;;;;;;;;6087850;29;20037;-72
2021/04/18 08:49:35;;;;;;;13.75;10.63;;;;;;;;;;6089604;29;20242;-72
2021/04/18 08:52:37;;;;;;;13.43;10.73;;;;;;;;;;6089728;29;20598;-71
2021/04/18 08:55:51;;;;;;;15.63;10.38;;;;;;;;;;6095626;29;20168;-77
2021/04/18 08:58:53;;;;;;;12.95;10.50;;;;;;;;;;6098381;29;20053;-71
2021/04/18 09:01:57;;;;;;;13.55;10.63;;;;;;;;;;6100358;29;20597;-72
2021/04/18 09:04:59;;;;;;;;;;;;;;;;;;6092336;29;20048;-71
2021/04/18 09:08:04;;;;;;;13.15;10.60;;;;;;;;;;6097225;29;19930;-72
2021/04/18 09:11:06;;;;;;;13.68;10.65;;;;;;;;;;6097602;29;20459;-72
2021/04/18 09:14:08;;;;;;;14.35;10.90;;;;;;;;;;6093727;29;20140;-70
2021/04/18 09:17:11;;;;;;;14.98;10.60;;;;;;;;;;6089503;29;20078;-72
2021/04/18 09:20:17;;;;;;;14.75;11.60;;;;;;;;;;6095280;29;20048;-70
2021/04/18 09:23:19;;;;;;;14.18;10.43;;;;;;;;;;6094669;29;20055;-73
2021/04/18 09:26:20;;;;;;;12.48;9.98;;;;;;;;;;6085451;29;20056;-72
2021/04/18 09:29:23;;;;;;;12.75;9.85;;;;;;;;;;6086863;29;20076;-73
2021/04/18 09:32:25;;;;;;;12.20;10.38;;;;;;;;;;6087181;29;20052;-77
2021/04/18 09:35:27;;;;;;;15.55;11.65;;;;;;;;;;6083524;29;20431;-74
2021/04/18 09:38:31;;;;;;;15.05;12.27;;;;;;;;;;6094711;29;20083;-73
2021/04/18 09:41:36;;;;;;;16.23;12.60;;;;;;;;;;6093817;29;20052;-73
2021/04/18 09:44:43;;;;;;;14.70;11.82;;;;;;;;;;6097760;29;20047;-71
2021/04/18 09:47:46;;;;;;;15.23;12.38;;;;;;;;;;6100530;29;20051;-71
2021/04/18 09:50:59;;;;;;;12.38;10.50;;;;;;;;;;6092593;29;20048;-72
2021/04/18 09:54:01;;;;;;;15.73;11.63;;;;;;;;;;6098658;29;20055;-71
2021/04/18 09:57:24;;;;;;;14.50;11.77;;;;;;;;;;6093319;29;20180;-74
2021/04/18 10:00:36;;;;;;;17.52;13.05;;;;;;;;;;6086675;29;20072;-71
2021/04/18 10:03:39;;;;;;;14.20;11.23;;;;;;;;;;6088319;29;20056;-74
2021/04/18 10:06:47;;;;;;;15.38;12.02;;;;;;;;;;6090663;29;20060;-72
2021/04/18 10:09:49;;;;;;;13.55;11.77;;;;;;;;;;6089186;29;20131;-71
2021/04/18 10:12:52;;;;;;;12.05;10.75;;;;;;;;;;6084919;29;20056;-73
2021/04/18 10:15:55;;;;;;;12.30;11.02;;;;;;;;;;6082952;29;20144;-71
2021/04/18 10:19:05;;;;;;;12.57;11.27;;;;;;;;;;6083182;29;20063;-71
2021/04/18 10:22:08;;;;;;;12.02;10.73;;;;;;;;;;6085825;29;20068;-76
2021/04/18 10:25:10;;;;;;;11.90;10.37;;;;;;;;;;6089152;29;20396;-74
2021/04/18 10:28:11;;;;;;;10.45;9.32;;;;;;;;;;6089201;29;20068;-73
2021/04/18 10:31:13;;;;;;;11.00;9.73;;;;;;;;;;6095424;29;20048;-72
2021/04/18 10:34:15;;;;;;;10.82;9.55;;;;;;;;;;6096871;29;20073;-74
2021/04/18 10:37:16;;;;;;;10.73;9.57;;;;;;;;;;6080908;29;20053;-73
2021/04/18 10:40:21;;;;;;;10.52;9.43;;;;;;;;;;6092095;29;20064;-72
2021/04/18 10:43:22;;;;;;;12.18;9.52;;;;;;;;;;6103018;29;20046;-74
2021/04/18 10:46:24;;;;;;;13.07;10.52;;;;;;;;;;6102349;29;20076;-72
2021/04/18 10:49:26;;;;;;;13.25;9.95;;;;;;;;;;6102061;29;20123;-72
2021/04/18 10:52:28;;;;;;;11.38;10.10;;;;;;;;;;6101557;29;20090;-71
2021/04/18 10:55:29;;;;;;;11.23;9.75;;;;;;;;;;6101341;29;20091;-71
2021/04/18 10:58:30;;;;;;;9.75;8.75;;;;;;;;;;6098279;29;20083;-71
2021/04/18 11:01:32;;;;;;;10.85;8.88;;;;;;;;;;6099997;29;20139;-72
2021/04/18 11:04:33;;;;;;;12.75;10.90;;;;;;;;;;6093163;29;20087;-69
2021/04/18 11:07:34;;;;;;;14.93;11.98;;;;;;;;;;6092761;29;20143;-71
2021/04/18 11:10:35;;;;;;;12.43;10.32;;;;;;;;;;6098622;29;20056;-70
2021/04/18 11:13:36;;;;;;;12.32;10.68;;;;;;;;;;6091426;29;20057;-69
2021/04/18 11:16:38;;;;;;;11.80;10.52;;;;;;;;;;6098129;29;20078;-69
2021/04/18 11:19:39;;;;;;;12.13;10.40;;;;;;;;;;6098663;29;20072;-69
2021/04/18 11:22:40;;;;;;;11.82;10.30;;;;;;;;;;6094196;29;20138;-69
2021/04/18 11:25:41;;;;;;;13.82;10.02;;;;;;;;;;6093568;29;20052;-72
2021/04/18 11:28:42;;;;;;;11.40;9.40;;;;;;;;;;6095862;29;20135;-73
2021/04/18 11:31:45;;;;;;;11.00;8.75;;;;;;;;;;6100137;29;20079;-73
2021/04/18 11:34:46;;;;;;;12.35;9.85;;;;;;;;;;6095911;29;20052;-74
2021/04/18 11:37:48;;;;;;;11.48;9.27;;;;;;;;;;6099371;29;20052;-72
2021/04/18 11:40:49;;;;;;;10.95;8.80;;;;;;;;;;6097627;29;20053;-69
2021/04/18 11:43:50;;;;;;;10.05;8.65;;;;;;;;;;6098153;29;20094;-69
2021/04/18 11:46:53;;;;;;;9.88;8.68;;;;;;;;;;6093509;29;20056;-73
2021/04/18 11:49:54;;;;;;;9.07;7.50;;;;;;;;;;6096728;29;20055;-68
2021/04/18 11:52:55;;;;;;;9.82;8.18;;;;;;;;;;6094096;29;20268;-67
2021/04/18 11:55:57;;;;;;;8.02;6.97;;;;;;;;;;6094552;29;20123;-68
2021/04/18 11:58:58;;;;;;;8.52;7.63;;;;;;;;;;6098903;29;20071;-69
2021/04/18 12:02:00;;;;;;;8.32;7.50;;;;;;;;;;6095480;29;20151;-68
2021/04/18 12:05:01;;;;;;;9.57;8.50;;;;;;;;;;6093117;29;20056;-69
2021/04/18 12:08:02;;;;;;;8.45;7.63;;;;;;;;;;6090443;29;20139;-68
2021/04/18 12:11:03;;;;;;;9.75;8.68;;;;;;;;;;6094522;29;20071;-70
2021/04/18 12:14:04;;;;;;;9.38;8.48;;;;;;;;;;6095202;29;20454;-71
2021/04/18 12:17:06;;;;;;;10.73;8.98;;;;;;;;;;6095499;29;20451;-71
2021/04/18 12:20:09;;;;;;;11.32;8.50;;;;;;;;;;6096311;29;20203;-69
2021/04/18 12:23:12;;;;;;;9.53;8.50;;;;;;;;;;6095700;29;20047;-69
2021/04/18 12:26:13;;;;;;;10.13;9.13;;;;;;;;;;6097025;29;20052;-69
2021/04/18 12:29:14;;;;;;;10.10;9.00;;;;;;;;;;6097728;29;20503;-69
2021/04/18 12:32:16;;;;;;;9.65;8.75;;;;;;;;;;6094596;29;20493;-70
2021/04/18 12:35:18;;;;;;;9.65;8.65;;;;;;;;;;6093343;29;20076;-69
2021/04/18 12:38:19;;;;;;;10.65;9.55;;;;;;;;;;6085672;29;20092;-70
2021/04/18 12:41:20;;;;;;;10.88;9.30;;;;;;;;;;6089603;29;20103;-70
2021/04/18 12:44:21;;;;;;;11.43;10.05;;;;;;;;;;6094447;29;20056;-70
2021/04/18 12:47:25;;;;;;;12.57;9.40;;;;;;;;;;6093470;29;20135;-70
2021/04/18 12:50:26;;;;;;;10.52;9.43;;;;;;;;;;6095536;29;20044;-69
2021/04/18 12:53:27;;;;;;;12.68;10.35;;;;;;;;;;6094532;29;20056;-70
2021/04/18 12:56:30;;;;;;;11.07;9.57;;;;;;;;;;6085883;29;20052;-71
2021/04/18 12:59:32;;;;;;;12.23;10.57;;;;;;;;;;6088104;29;20083;-70
2021/04/18 13:02:34;;;;;;;10.65;9.50;;;;;;;;;;6089150;29;20437;-70
2021/04/18 13:05:35;;;;;;;10.73;9.18;;;;;;;;;;6092932;29;20131;-69
2021/04/18 13:08:36;;;;;;;9.68;8.60;;;;;;;;;;6089113;29;20107;-69
2021/04/18 13:11:37;;;;;;;9.43;8.10;;;;;;;;;;6095269;29;20135;-68
2021/04/18 13:14:38;;;;;;;9.60;8.70;;;;;;;;;;6095895;29;20066;-70
2021/04/18 13:17:40;;;;;;;8.65;7.75;;;;;;;;;;6086991;29;20130;-70
2021/04/18 13:20:42;;;;;;;10.20;8.18;;;;;;;;;;6089870;29;20072;-70
2021/04/18 13:23:43;;;;;;;9.63;7.45;;;;;;;;;;6089093;29;20076;-70
2021/04/18 13:26:44;;;;;;;7.90;7.05;;;;;;;;;;6093023;29;20532;-72
2021/04/18 13:29:45;;;;;;;7.47;6.78;;;;;;;;;;6086313;29;20080;-69
2021/04/18 13:32:47;;;;;;;8.38;7.53;;;;;;;;;;6091558;29;20746;-69
2021/04/18 13:35:48;;;;;;;11.68;7.38;;;;;;;;;;6087893;29;20073;-70
2021/04/18 13:38:49;;;;;;;11.43;8.27;;;;;;;;;;6088847;29;20152;-69
2021/04/18 13:41:50;;;;;;;10.30;6.18;;;;;;;;;;6087677;29;20087;-69
2021/04/18 13:44:52;;;;;;;7.60;5.78;;;;;;;;;;6088029;29;20074;-69
2021/04/18 13:47:53;;;;;;;6.53;5.30;;;;;;;;;;6089967;29;20067;-70
2021/04/18 13:50:55;;;;;;;15.90;8.07;;;;;;;;;;6087863;29;20123;-70
2021/04/18 13:53:56;;;;;;;12.57;8.25;;;;;;;;;;6085285;29;20063;-70
2021/04/18 13:56:57;;;;;;;12.88;9.50;;;;;;;;;;6083830;29;20111;-70
2021/04/18 13:59:58;;;;;;;12.57;9.88;;;;;;;;;;6079994;29;20471;-70
2021/04/18 14:03:00;;;;;;;12.88;9.23;;;;;;;;;;6088429;29;20946;-70
2021/04/18 14:06:01;;;;;;;16.70;9.18;;;;;;;;;;6088538;29;20071;-70
2021/04/18 14:09:03;;;;;;;11.18;9.70;;;;;;;;;;6091388;29;20184;-69
2021/04/18 14:12:05;;;;;;;12.02;9.40;;;;;;;;;;6085433;29;20048;-70
2021/04/18 14:15:08;;;;;;;13.80;10.55;;;;;;;;;;6088157;29;20082;-71
2021/04/18 14:18:10;;;;;;;13.57;9.88;;;;;;;;;;6088843;29;20134;-69
2021/04/18 14:21:11;;;;;;;24.55;9.88;;;;;;;;;;6094011;29;20083;-70
2021/04/18 14:24:12;;;;;;;17.98;9.23;;;;;;;;;;6092995;29;20071;-70
2021/04/18 14:27:13;;;;;;;35.58;10.90;;;;;;;;;;6092642;29;20108;-71
2021/04/18 14:30:16;;;;;;;21.73;11.35;;;;;;;;;;6092938;29;20542;-71
2021/04/18 14:33:18;;;;;;;24.15;11.50;;;;;;;;;;6091002;29;20063;-70
2021/04/18 14:36:19;;;;;;;20.83;11.00;;;;;;;;;;6096290;29;20163;-70
2021/04/18 14:39:21;;;;;;;14.52;9.55;;;;;;;;;;6092395;29;20099;-70
2021/04/18 14:42:23;;;;;;;17.58;9.95;;;;;;;;;;6086604;29;20167;-72
2021/04/18 14:45:24;;;;;;;23.70;11.80;;;;;;;;;;6089519;29;20079;-73
2021/04/18 14:48:26;;;;;;;26.38;10.98;;;;;;;;;;6093579;29;20060;-70
2021/04/18 14:51:27;;;;;;;46.40;11.68;;;;;;;;;;6100093;29;20384;-69
2021/04/18 14:54:29;;;;;;;14.57;10.10;;;;;;;;;;6097040;29;20127;-72
2021/04/18 14:57:30;;;;;;;17.13;10.82;;;;;;;;;;6095736;29;20090;-70
2021/04/18 15:00:31;;;;;;;12.05;10.05;;;;;;;;;;6090413;29;20175;-70
2021/04/18 15:03:33;;;;;;;15.00;10.23;;;;;;;;;;6082187;29;20071;-73
2021/04/18 15:06:34;;;;;;;12.18;9.30;;;;;;;;;;6085732;29;20253;-73
2021/04/18 15:09:35;;;;;;;12.38;10.55;;;;;;;;;;6085894;29;20074;-73
2021/04/18 15:12:36;;;;;;;14.73;10.35;;;;;;;;;;6091552;29;20087;-73
2021/04/18 15:15:37;;;;;;;20.58;10.48;;;;;;;;;;6091972;29;20096;-71
2021/04/18 15:18:39;;;;;;;15.35;10.18;;;;;;;;;;6091876;29;20048;-72
2021/04/18 15:21:41;;;;;;;11.60;9.95;;;;;;;;;;6094524;29;20072;-71
2021/04/18 15:24:42;;;;;;;11.18;9.18;;;;;;;;;;6092673;29;20139;-70
2021/04/18 15:27:43;;;;;;;12.10;9.60;;;;;;;;;;6091785;29;20048;-70
2021/04/18 15:30:44;;;;;;;11.23;9.95;;;;;;;;;;6089831;29;20143;-69
2021/04/18 15:33:46;;;;;;;18.42;10.50;;;;;;;;;;6092725;29;20139;-70
2021/04/18 15:36:47;;;;;;;13.52;9.75;;;;;;;;;;6092425;29;20161;-69
2021/04/18 15:39:49;;;;;;;11.38;9.63;;;;;;;;;;6088747;29;20503;-70
2021/04/18 15:42:50;;;;;;;11.40;9.50;;;;;;;;;;6078858;29;20076;-74
2021/04/18 15:45:51;;;;;;;12.20;10.30;;;;;;;;;;6088698;29;20084;-71
2021/04/18 15:48:53;;;;;;;12.55;9.45;;;;;;;;;;6088294;29;20127;-73
2021/04/18 15:51:54;;;;;;;10.65;9.55;;;;;;;;;;6092262;29;20164;-71
2021/04/18 15:54:56;;;;;;;11.27;10.05;;;;;;;;;;6097835;29;20099;-71
2021/04/18 15:57:57;;;;;;;12.40;10.20;;;;;;;;;;6097223;29;20090;-73
2021/04/18 16:00:58;;;;;;;12.48;10.35;;;;;;;;;;6093517;29;20084;-72
2021/04/18 16:04:00;;;;;;;11.73;10.27;;;;;;;;;;6096796;29;20072;-73
2021/04/18 16:07:01;;;;;;;11.80;10.18;;;;;;;;;;6094551;29;20667;-72
2021/04/18 16:10:04;;;;;;;13.15;10.50;;;;;;;;;;6093228;29;20052;-73
2021/04/18 16:13:06;;;;;;;11.68;9.85;;;;;;;;;;6091178;29;20095;-75
2021/04/18 16:16:07;;;;;;;12.38;10.80;;;;;;;;;;6086629;29;20071;-73
2021/04/18 16:19:09;;;;;;;13.73;10.27;;;;;;;;;;6093748;29;20089;-74
2021/04/18 16:22:10;;;;;;;12.32;10.00;;;;;;;;;;6093607;29;20498;-71
2021/04/18 16:25:11;;;;;;;14.07;10.98;;;;;;;;;;6096550;29;20040;-72
2021/04/18 16:28:13;;;;;;;16.25;10.27;;;;;;;;;;6085368;29;20083;-75
2021/04/18 16:31:14;;;;;;;14.23;10.55;;;;;;;;;;6080770;29;20068;-73
2021/04/18 16:34:16;;;;;;;14.38;9.95;;;;;;;;;;6079803;29;20638;-72
2021/04/18 16:37:18;;;;;;;12.82;10.07;;;;;;;;;;6090725;29;20188;-72
2021/04/18 16:40:19;;;;;;;13.40;10.27;;;;;;;;;;6086428;29;20534;-72
2021/04/18 16:43:20;;;;;;;11.32;9.88;;;;;;;;;;6081944;29;20140;-76
2021/04/18 16:46:21;;;;;;;12.38;10.23;;;;;;;;;;6086201;29;20130;-73
2021/04/18 16:49:23;;;;;;;11.63;10.13;;;;;;;;;;6080490;29;20135;-73
2021/04/18 16:52:24;;;;;;;11.25;9.68;;;;;;;;;;6088164;29;20546;-72
2021/04/18 16:55:25;;;;;;;10.93;9.70;;;;;;;;;;6086101;29;20075;-77
2021/04/18 16:58:26;;;;;;;12.18;9.50;;;;;;;;;;6087937;29;20151;-76
2021/04/18 17:01:27;;;;;;;11.43;9.68;;;;;;;;;;6094988;29;20071;-73
2021/04/18 17:04:29;;;;;;;11.15;9.45;;;;;;;;;;6092775;29;20558;-73
2021/04/18 17:07:30;;;;;;;11.18;9.70;;;;;;;;;;6100207;29;20127;-72
2021/04/18 17:10:31;;;;;;;11.68;9.80;;;;;;;;;;6097189;29;20058;-76
2021/04/18 17:13:32;;;;;;;11.57;9.68;;;;;;;;;;6089793;29;20084;-73
2021/04/18 17:16:34;;;;;;;12.60;9.93;;;;;;;;;;6088878;29;20104;-72
2021/04/18 17:19:35;;;;;;;12.40;9.82;;;;;;;;;;6097537;29;20082;-73
2021/04/18 17:22:37;;;;;;;13.98;9.90;;;;;;;;;;6082827;29;20088;-73
2021/04/18 17:25:38;;;;;;;13.80;10.23;;;;;;;;;;6093728;29;20068;-73
2021/04/18 17:28:39;;;;;;;13.45;10.48;;;;;;;;;;6102771;29;20076;-72
2021/04/18 17:31:40;;;;;;;12.38;10.68;;;;;;;;;;6094369;29;20071;-73
2021/04/18 17:34:42;;;;;;;13.43;10.10;;;;;;;;;;6088786;29;20138;-73
2021/04/18 17:37:43;;;;;;;12.60;9.88;;;;;;;;;;6083265;29;20144;-76
2021/04/18 17:40:44;;;;;;;13.20;9.93;;;;;;;;;;6084679;29;20075;-73
2021/04/18 17:43:46;;;;;;;12.90;10.15;;;;;;;;;;6085653;29;20135;-75